Time;durP1;ratioP1;P1;durP2;ratioP2;P2;SDS_P1;SDS_P2;PMS_P1;PMS_P2;Temp;Humidity;BMP_temperature;BMP_pressure;BME280_temperature;BME280_humidity;BME280_pressure;Samples;Min_cycle;Max_cycle;Signal;HPM_P1;HPM_P2
2022/08/20 00:01:13;;;;;;;15.60;8.00;;;;;;;28.53;40.14;100457.13;5107497;28;20383;-61
2022/08/20 00:03:42;;;;;;;18.07;8.50;;;;;;;28.54;40.09;100459.59;5107217;28;20451;-61
2022/08/20 00:06:11;;;;;;;13.50;8.38;;;;;;;28.56;40.13;100453.84;5107510;28;20380;-59
2022/08/20 00:08:38;;;;;;;12.50;8.18;;;;;;;28.52;40.12;100450.88;5107347;28;20870;-60
2022/08/20 00:11:06;;;;;;;13.75;8.27;;;;;;;28.52;40.30;100450.06;5107660;28;20388;-58
2022/08/20 00:13:36;;;;;;;12.85;7.85;;;;;;;28.46;40.39;100446.59;5107293;28;20412;-59
2022/08/20 00:16:03;;;;;;;13.82;8.07;;;;;;;28.41;40.54;100443.94;5106955;28;20384;-60
2022/08/20 00:18:29;;;;;;;14.95;7.53;;;;;;;28.38;40.63;100448.09;5107037;28;20434;-59
2022/08/20 00:20:55;;;;;;;11.60;7.28;;;;;;;28.34;40.51;100441.63;5106953;28;20369;-59
2022/08/20 00:23:21;;;;;;;12.77;7.78;;;;;;;28.32;40.79;100443.81;5107099;28;20377;-58
2022/08/20 00:25:47;;;;;;;14.80;7.95;;;;;;;28.29;40.97;100436.25;5106826;28;20380;-60
2022/08/20 00:28:13;;;;;;;13.50;7.80;;;;;;;28.30;40.85;100432.38;5106745;28;20373;-60
2022/08/20 00:30:41;;;;;;;14.55;7.65;;;;;;;28.30;40.92;100435.13;5106853;28;20391;-58
2022/08/20 00:33:11;;;;;;;14.73;7.78;;;;;;;28.34;40.86;100443.50;5106933;28;20415;-59
2022/08/20 00:35:40;;;;;;;13.75;7.57;;;;;;;28.33;41.25;100444.63;5106589;28;20391;-60
2022/08/20 00:38:06;;;;;;;13.95;7.75;;;;;;;28.35;41.13;100451.41;5107159;28;20417;-61
2022/08/20 00:40:48;;;;;;;10.48;7.43;;;;;;;28.31;41.28;100447.66;5106838;28;20385;-61
2022/08/20 00:43:43;;;;;;;12.10;7.80;;;;;;;28.32;41.55;100443.00;5106474;28;20415;-59
2022/08/20 00:46:32;;;;;;;10.67;7.53;;;;;;;28.31;41.45;100449.56;5097320;28;20493;-60
2022/08/20 00:51:31;;;;;;;12.75;6.97;;;;;;;28.19;41.23;100450.81;5106726;27;20458;-60
2022/08/20 00:54:12;;;;;;;14.63;6.97;;;;;;;28.18;41.08;100453.81;5107616;28;20403;-60
2022/08/20 00:56:42;;;;;;;13.77;6.90;;;;;;;28.15;40.85;100440.81;5107459;28;20376;-60
2022/08/20 00:59:11;;;;;;;12.27;6.50;;;;;;;28.11;40.44;100440.59;5106371;28;20433;-59
2022/08/20 01:01:39;;;;;;;10.77;6.00;;;;;;;28.07;40.52;100444.19;5107507;28;20389;-60
2022/08/20 01:04:04;;;;;;;8.65;5.60;;;;;;;28.06;40.10;100448.84;5107482;28;20377;-60
2022/08/20 01:06:31;;;;;;;10.20;6.30;;;;;;;27.96;40.48;100443.50;5107216;28;20368;-60
2022/08/20 01:09:00;;;;;;;10.95;5.95;;;;;;;27.88;40.65;100436.78;5107010;28;20513;-60
2022/08/20 01:11:33;;;;;;;12.93;5.97;;;;;;;27.84;40.63;100435.75;5107341;28;20383;-60
2022/08/20 01:14:01;;;;;;;11.67;5.83;;;;;;;27.80;41.13;100432.81;5107276;28;20368;-60
2022/08/20 01:16:31;;;;;;;9.10;6.20;;;;;;;27.77;40.96;100433.38;5107270;28;20430;-59
2022/08/20 01:18:59;;;;;;;6.72;5.45;;;;;;;27.57;40.94;100439.09;5107003;28;20373;-60
2022/08/20 01:21:32;;;;;;;14.57;5.97;;;;;;;27.45;41.13;100426.69;5106770;28;20856;-60
2022/08/20 01:24:00;;;;;;;7.72;5.60;;;;;;;27.42;41.19;100430.00;5107022;28;20388;-59
2022/08/20 01:26:33;;;;;;;10.77;5.70;;;;;;;27.39;41.43;100422.41;5107124;28;20368;-60
2022/08/20 01:29:07;;;;;;;13.45;6.35;;;;;;;27.41;41.59;100433.81;5106964;28;20380;-60
2022/08/20 01:31:35;;;;;;;13.25;6.30;;;;;;;27.44;41.57;100437.84;5106646;28;20383;-59
2022/08/20 01:34:04;;;;;;;10.00;6.35;;;;;;;27.45;41.26;100434.03;5106694;28;20448;-60
2022/08/20 01:36:34;;;;;;;11.95;6.35;;;;;;;27.52;41.48;100447.31;5107128;28;20475;-60
2022/08/20 01:39:00;;;;;;;11.23;6.15;;;;;;;27.53;41.35;100447.03;5106398;28;20385;-60
2022/08/20 01:41:42;;;;;;;11.07;6.10;;;;;;;27.54;41.67;100442.38;5106726;28;20410;-59
2022/08/20 01:44:09;;;;;;;11.45;6.40;;;;;;;27.50;41.80;100433.19;5106606;28;20901;-60
2022/08/20 01:46:39;;;;;;;9.30;6.22;;;;;;;27.53;41.75;100454.38;5106331;28;20808;-60
2022/08/20 01:49:20;;;;;;;11.03;6.40;;;;;;;27.50;41.58;100452.25;5092823;28;20418;-60
2022/08/20 01:51:45;;;;;;;12.83;6.50;;;;;;;27.44;41.63;100448.75;5079066;28;20391;-60
2022/08/20 01:54:12;;;;;;;10.80;6.45;;;;;;;27.43;41.37;100445.22;5067211;28;20384;-59
2022/08/20 01:56:50;;;;;;;9.90;6.28;;;;;;;27.36;41.54;100436.59;5065796;28;20391;-60
2022/08/20 01:59:16;;;;;;;10.13;6.22;;;;;;;27.37;41.61;100431.94;5065677;28;20380;-59
2022/08/20 02:01:42;;;;;;;10.20;6.10;;;;;;;27.36;41.69;100443.97;5056744;28;20384;-60
2022/08/20 02:04:09;;;;;;;9.50;6.30;;;;;;;27.37;41.37;100456.44;5052574;28;20420;-60
2022/08/20 02:06:39;;;;;;;10.40;6.15;;;;;;;27.33;41.52;100439.88;5052540;28;20430;-59
2022/08/20 02:10:58;;;;;;;11.02;5.60;;;;;;;27.24;41.46;100445.16;5106795;27;20405;-60
2022/08/20 02:13:24;;;;;;;7.63;5.63;;;;;;;27.24;41.16;100447.88;5107691;28;20449;-60
2022/08/20 02:15:49;;;;;;;12.17;6.17;;;;;;;27.17;41.22;100439.22;5107352;28;20434;-60
2022/08/20 02:20:10;;;;;;;10.70;6.72;;;;;;;27.13;41.34;100448.25;5066071;28;20828;-59
2022/08/20 02:22:46;;;;;;;11.70;5.95;;;;;;;27.13;41.45;100456.41;5066865;28;20407;-60
2022/08/20 02:25:12;;;;;;;7.13;5.95;;;;;;;27.11;41.97;100450.44;5048201;28;20399;-60
2022/08/20 02:27:41;;;;;;;10.60;6.10;;;;;;;27.06;41.54;100449.41;5027214;28;20431;-58
2022/08/20 02:30:16;;;;;;;9.07;6.20;;;;;;;26.97;41.68;100439.41;5027191;28;20375;-61
2022/08/20 02:32:42;;;;;;;8.07;6.00;;;;;;;26.86;42.14;100438.69;5026909;28;20750;-57
2022/08/20 02:35:11;;;;;;;11.82;6.57;;;;;;;26.81;42.29;100433.28;5027125;28;20899;-59
2022/08/20 02:37:38;;;;;;;13.35;6.70;;;;;;;26.73;42.15;100433.94;5026854;28;20375;-60
2022/08/20 02:40:06;;;;;;;8.60;6.68;;;;;;;26.67;42.64;100433.97;5026953;28;20881;-58
2022/08/20 02:42:33;;;;;;;9.43;6.70;;;;;;;26.67;42.60;100430.44;5026634;28;20444;-59
2022/08/20 02:44:59;;;;;;;12.55;7.38;;;;;;;26.69;42.51;100426.34;5026835;28;20394;-60
2022/08/20 02:47:26;;;;;;;11.27;6.97;;;;;;;26.70;42.37;100432.56;5026548;28;20390;-59
2022/08/20 02:49:53;;;;;;;11.55;6.90;;;;;;;26.72;42.34;100426.84;5026265;28;20757;-60
2022/08/20 02:52:20;;;;;;;9.47;7.10;;;;;;;26.73;42.10;100428.50;5026439;28;20781;-59
2022/08/20 02:54:46;;;;;;;11.77;6.88;;;;;;;26.72;42.33;100430.38;5026688;28;20470;-59
2022/08/20 02:57:19;;;;;;;9.63;6.90;;;;;;;26.74;42.51;100436.38;5026351;28;20883;-61
2022/08/20 02:59:46;;;;;;;12.35;7.18;;;;;;;26.75;42.60;100431.72;5026504;28;20423;-59
2022/08/20 03:02:12;;;;;;;11.50;7.18;;;;;;;26.78;42.54;100428.44;5026249;28;20830;-59
2022/08/20 03:04:38;;;;;;;10.93;7.03;;;;;;;26.79;42.25;100433.59;5026512;28;20382;-59
2022/08/20 03:07:05;;;;;;;11.18;7.03;;;;;;;26.77;42.62;100437.69;5026458;28;20407;-60
2022/08/20 03:09:30;;;;;;;8.55;7.00;;;;;;;26.76;42.71;100439.63;5026110;28;20494;-58
2022/08/20 03:12:05;;;;;;;9.10;7.57;;;;;;;26.67;42.88;100433.16;5106583;27;20731;-58
2022/08/20 03:14:31;;;;;;;14.77;7.10;;;;;;;26.65;42.87;100429.91;5107561;28;20484;-58
2022/08/20 03:16:58;;;;;;;12.55;7.43;;;;;;;26.65;42.84;100425.28;5107621;28;20821;-58
2022/08/20 03:19:24;;;;;;;13.25;7.20;;;;;;;26.66;42.99;100431.53;5107581;28;20373;-59
2022/08/20 03:21:49;;;;;;;13.00;7.63;;;;;;;26.64;42.85;100433.72;5107117;28;20383;-59
2022/08/20 03:24:15;;;;;;;11.17;7.10;;;;;;;26.54;43.25;100417.47;5107518;28;20434;-58
2022/08/20 03:26:40;;;;;;;12.20;7.37;;;;;;;26.54;43.07;100433.78;5107677;28;20866;-59
2022/08/20 03:29:06;;;;;;;13.30;7.53;;;;;;;26.52;43.25;100426.72;5107364;28;20380;-60
2022/08/20 03:31:32;;;;;;;9.38;7.57;;;;;;;26.49;43.41;100424.56;5107196;28;20481;-59
2022/08/20 03:33:58;;;;;;;11.23;7.47;;;;;;;26.47;43.35;100428.66;5107303;28;20384;-59
2022/08/20 03:36:25;;;;;;;12.07;7.60;;;;;;;26.45;43.27;100433.56;5107220;28;20380;-57
2022/08/20 03:38:50;;;;;;;11.23;7.25;;;;;;;26.52;43.26;100429.44;5106937;28;20379;-60
2022/08/20 03:41:16;;;;;;;12.30;7.53;;;;;;;26.61;43.38;100437.81;5106928;28;20377;-58
2022/08/20 03:43:41;;;;;;;9.50;7.30;;;;;;;26.66;43.41;100440.50;5106999;28;20866;-58
2022/08/20 03:46:07;;;;;;;16.03;8.00;;;;;;;26.73;43.23;100448.34;5106934;28;20434;-57
2022/08/20 03:48:33;;;;;;;11.27;7.20;;;;;;;26.73;42.86;100445.59;5106950;28;20381;-57
2022/08/20 03:50:59;;;;;;;12.57;7.50;;;;;;;26.75;43.13;100450.78;5106979;28;20546;-59
2022/08/20 03:53:30;;;;;;;12.70;7.37;;;;;;;26.75;43.26;100451.56;5106563;28;20751;-58
2022/08/20 03:55:59;;;;;;;10.60;7.65;;;;;;;26.83;43.14;100458.28;5106746;28;20368;-59
2022/08/20 03:58:28;;;;;;;12.67;7.40;;;;;;;26.90;43.14;100466.94;5106877;28;20453;-57
2022/08/20 04:00:55;;;;;;;12.38;7.43;;;;;;;26.97;43.17;100455.75;5099180;28;20422;-59
2022/08/20 04:03:21;;;;;;;10.77;7.37;;;;;;;27.05;43.15;100464.09;5086419;28;20387;-58
2022/08/20 04:05:48;;;;;;;12.18;7.35;;;;;;;27.09;42.90;100467.06;5086368;28;20925;-59
2022/08/20 04:08:21;;;;;;;10.48;7.30;;;;;;;27.09;42.63;100461.63;5086308;28;20390;-59
2022/08/20 04:10:48;;;;;;;14.70;7.93;;;;;;;27.09;42.61;100465.13;5086192;28;20426;-58
2022/08/20 04:13:16;;;;;;;12.77;8.00;;;;;;;27.16;42.19;100470.25;5086198;28;20378;-58
2022/08/20 04:15:44;;;;;;;14.00;7.80;;;;;;;27.18;42.13;100473.50;5086410;28;20500;-59
2022/08/20 04:18:11;;;;;;;13.95;7.75;;;;;;;27.23;41.94;100467.19;5086118;28;20421;-58
2022/08/20 04:20:40;;;;;;;14.27;7.87;;;;;;;27.33;41.94;100466.31;5086064;28;20461;-58
2022/08/20 04:23:06;;;;;;;12.88;7.45;;;;;;;27.40;41.79;100470.28;5074351;28;20385;-59
2022/08/20 04:25:34;;;;;;;14.10;7.50;;;;;;;27.51;41.81;100471.00;5072134;28;20383;-60
2022/08/20 04:28:02;;;;;;;12.32;7.60;;;;;;;27.65;41.48;100466.47;5072414;28;20407;-58
2022/08/20 04:30:29;;;;;;;10.82;7.65;;;;;;;27.73;41.13;100473.22;5072390;28;20796;-59
2022/08/20 04:32:55;;;;;;;13.25;7.88;;;;;;;27.83;40.75;100474.97;5071401;28;20463;-58
2022/08/20 04:35:23;;;;;;;10.82;7.88;;;;;;;27.98;40.87;100469.38;5072308;28;20414;-59
2022/08/20 04:37:56;;;;;;;14.10;7.95;;;;;;;28.14;40.52;100460.97;5071855;28;20964;-60
2022/08/20 04:43:06;;;;;;;13.57;8.52;;;;;;;28.43;40.07;100469.00;5071008;28;20445;-60
2022/08/20 04:45:32;;;;;;;16.05;8.35;;;;;;;28.59;39.77;100475.88;5070808;28;20399;-61
2022/08/20 04:48:04;;;;;;;12.90;7.63;;;;;;;28.74;39.45;100476.75;5071206;28;20418;-59
2022/08/20 04:50:34;;;;;;;11.10;7.55;;;;;;;28.88;39.29;100471.31;5072136;28;20411;-59
2022/08/20 04:53:04;;;;;;;11.88;7.25;;;;;;;29.06;38.82;100472.38;5071515;28;20401;-60
2022/08/20 04:55:30;;;;;;;9.63;7.82;;;;;;;29.31;38.45;100466.47;5070984;28;20386;-58
2022/08/20 04:58:02;;;;;;;17.63;7.68;;;;;;;29.52;38.28;100475.09;5070419;28;20414;-59
2022/08/20 05:00:28;;;;;;;11.68;7.25;;;;;;;29.85;37.63;100479.66;5071783;28;20551;-57
2022/08/20 05:02:53;;;;;;;13.63;7.43;;;;;;;30.04;37.36;100476.78;5070954;28;20893;-60
2022/08/20 05:05:21;;;;;;;16.73;7.70;;;;;;;30.22;36.98;100475.84;5070610;28;20402;-60
2022/08/20 05:07:47;;;;;;;16.77;8.35;;;;;;;30.51;36.61;100476.59;5070409;28;20919;-61
2022/08/20 05:10:16;;;;;;;17.43;8.37;;;;;;;30.90;36.14;100477.81;5070445;28;20534;-58
2022/08/20 05:12:43;;;;;;;19.00;8.38;;;;;;;31.75;34.31;100481.28;5071770;28;20379;-58
2022/08/20 05:15:11;;;;;;;19.63;8.80;;;;;;;32.66;32.85;100484.31;5070189;28;20928;-59
2022/08/20 05:17:37;;;;;;;15.48;8.10;;;;;;;33.46;31.49;100483.78;5070675;28;20402;-61
2022/08/20 05:20:05;;;;;;;15.00;8.03;;;;;;;34.19;30.77;100487.44;5060518;28;20952;-61
2022/08/20 05:22:30;;;;;;;15.13;7.97;;;;;;;34.77;29.53;100485.66;5059269;28;20896;-60
2022/08/20 05:24:58;;;;;;;11.60;7.50;;;;;;;35.36;28.98;100492.78;5052871;28;21595;-60
2022/08/20 05:27:25;;;;;;;10.82;7.85;;;;;;;35.93;28.08;100496.56;5058325;28;20389;-59
2022/08/20 05:29:53;;;;;;;14.70;7.75;;;;;;;36.52;27.05;100492.41;5063906;28;20402;-59
2022/08/20 05:32:19;;;;;;;14.27;8.68;;;;;;;37.05;26.20;100492.25;5067213;28;20395;-59
2022/08/20 05:34:45;;;;;;;12.07;8.65;;;;;;;37.67;25.69;100497.34;5069547;28;20386;-58
2022/08/20 05:37:10;;;;;;;12.88;8.60;;;;;;;38.23;24.92;100493.44;5070965;28;20382;-58
2022/08/20 05:39:36;;;;;;;15.48;8.18;;;;;;;38.81;24.08;100498.97;5070576;28;20394;-60
2022/08/20 05:42:02;;;;;;;15.82;8.50;;;;;;;39.19;23.82;100502.81;5070069;28;20440;-59
2022/08/20 05:44:27;;;;;;;12.55;7.90;;;;;;;39.63;23.30;100512.66;5070474;28;20440;-59
2022/08/20 05:46:53;;;;;;;11.15;7.60;;;;;;;40.04;22.47;100509.28;5070379;28;20406;-61
2022/08/20 05:49:20;;;;;;;13.60;7.22;;;;;;;40.56;22.12;100507.56;5070378;28;20387;-58
2022/08/20 05:51:47;;;;;;;17.25;7.65;;;;;;;41.10;21.70;100510.09;5070725;28;20402;-60
2022/08/20 05:54:13;;;;;;;11.60;7.30;;;;;;;41.68;20.83;100511.38;5070534;28;20440;-60
2022/08/20 05:56:39;;;;;;;11.77;6.60;;;;;;;42.22;19.67;100515.25;5070698;28;20808;-60
2022/08/20 05:59:07;;;;;;;10.05;6.28;;;;;;;42.53;19.43;100510.22;5070296;28;20386;-60
2022/08/20 06:01:35;;;;;;;11.07;6.15;;;;;;;42.92;18.83;100501.94;5050741;28;20874;-59
2022/08/20 06:06:45;;;;;;;8.55;6.20;;;;;;;43.91;17.60;100496.69;5070598;28;20464;-60
2022/08/20 06:09:11;;;;;;;14.10;6.43;;;;;;;44.44;17.18;100494.06;5070237;28;20390;-58
2022/08/20 06:11:37;;;;;;;10.20;6.90;;;;;;;44.81;16.50;100490.66;5069995;28;20423;-58
2022/08/20 06:14:02;;;;;;;9.73;6.20;;;;;;;45.32;16.11;100487.47;5069559;28;20434;-59
2022/08/20 06:16:29;;;;;;;9.17;6.30;;;;;;;45.72;15.75;100494.28;5070140;28;20470;-60
2022/08/20 06:18:55;;;;;;;10.63;6.22;;;;;;;46.23;15.42;100494.47;5069559;28;20746;-60
2022/08/20 06:21:20;;;;;;;11.03;6.67;;;;;;;46.38;15.03;100488.66;5070249;28;20986;-60
2022/08/20 06:23:46;;;;;;;9.15;6.47;;;;;;;46.34;15.21;100480.31;5069424;28;20383;-60
2022/08/20 06:26:11;;;;;;;10.57;6.50;;;;;;;46.50;14.86;100480.50;5069892;28;20478;-59
2022/08/20 06:28:37;;;;;;;11.93;6.43;;;;;;;46.54;14.72;100488.84;5069661;28;20391;-60
2022/08/20 06:31:03;;;;;;;10.57;6.23;;;;;;;46.95;14.37;100472.97;5068525;28;20924;-60
2022/08/20 06:33:28;;;;;;;10.00;6.60;;;;;;;47.37;14.33;100463.03;5068801;28;20395;-59
2022/08/20 06:35:54;;;;;;;11.43;6.10;;;;;;;47.15;14.18;100459.81;5069411;28;20391;-60
2022/08/20 06:38:20;;;;;;;10.33;6.30;;;;;;;47.33;14.21;100467.16;5063326;28;20835;-61
2022/08/20 06:40:46;;;;;;;11.47;6.50;;;;;;;47.48;14.15;100460.81;5065952;28;20414;-60
2022/08/20 06:43:12;;;;;;;11.83;6.03;;;;;;;47.53;14.18;100461.53;5065455;28;20396;-61
2022/08/20 06:45:38;;;;;;;11.07;6.38;;;;;;;47.54;14.08;100455.47;5058821;28;20400;-60
2022/08/20 06:48:11;;;;;;;12.75;6.55;;;;;;;47.93;13.90;100467.94;5058471;28;20904;-59
2022/08/20 06:50:41;;;;;;;12.00;6.37;;;;;;;47.85;13.74;100463.72;5053802;28;20507;-58
2022/08/20 06:53:13;;;;;;;9.07;6.40;;;;;;;47.64;13.60;100462.94;5056637;28;20506;-59
2022/08/20 06:55:41;;;;;;;8.98;6.22;;;;;;;47.48;13.77;100463.59;5052698;28;20396;-59
2022/08/20 06:58:09;;;;;;;10.53;6.17;;;;;;;47.97;13.47;100470.72;5065012;28;20394;-59
2022/08/20 07:00:37;;;;;;;11.35;5.95;;;;;;;48.39;13.25;100471.81;5065483;28;20387;-60
2022/08/20 07:03:03;;;;;;;10.75;6.05;;;;;;;48.78;13.35;100466.47;5061169;28;20418;-58
2022/08/20 07:05:31;;;;;;;11.68;6.38;;;;;;;49.00;13.15;100469.50;5062690;28;20437;-58
2022/08/20 07:07:57;;;;;;;10.25;5.82;;;;;;;48.84;13.26;100466.72;5062740;28;20395;-59
2022/08/20 07:10:24;;;;;;;8.07;6.15;;;;;;;48.62;13.03;100458.78;5059744;28;20972;-60
2022/08/20 07:12:50;;;;;;;10.90;6.05;;;;;;;47.77;13.62;100451.81;5056773;28;20739;-60
2022/08/20 07:15:18;;;;;;;16.35;6.97;;;;;;;46.76;14.79;100446.44;5063342;28;20391;-59
2022/08/20 07:17:52;;;;;;;9.77;6.00;;;;;;;45.94;15.61;100435.97;5060063;28;20435;-61
2022/08/20 07:20:18;;;;;;;9.60;6.50;;;;;;;45.31;16.39;100435.47;5059426;28;20430;-59
2022/08/20 07:22:44;;;;;;;12.68;6.13;;;;;;;44.97;16.51;100439.03;5055935;28;20408;-59
2022/08/20 07:25:13;;;;;;;10.43;6.43;;;;;;;45.87;15.74;100427.69;5055269;28;20418;-60
2022/08/20 07:27:39;;;;;;;14.27;6.13;;;;;;;46.90;15.11;100409.75;5052420;28;20397;-59
2022/08/20 07:32:51;;;;;;;15.20;5.97;;;;;;;45.46;16.00;100406.16;5061410;28;20464;-59
2022/08/20 07:35:18;;;;;;;15.02;6.25;;;;;;;42.89;18.40;100399.53;5055568;28;20432;-59
2022/08/20 07:37:47;;;;;;;11.63;6.05;;;;;;;41.67;19.63;100404.03;5064786;28;20429;-58
2022/08/20 07:40:20;;;;;;;8.45;6.30;;;;;;;40.74;20.83;100409.69;5054815;28;20434;-59
2022/08/20 07:42:46;;;;;;;9.85;6.07;;;;;;;39.78;21.86;100407.41;5059116;28;20390;-59
2022/08/20 07:45:14;;;;;;;16.23;6.40;;;;;;;39.34;22.54;100412.34;5055999;28;20395;-58
2022/08/20 07:47:41;;;;;;;12.50;6.22;;;;;;;38.93;23.20;100400.19;5068256;28;20409;-57
2022/08/20 07:50:14;;;;;;;9.13;5.87;;;;;;;38.31;24.05;100403.84;5055129;28;20400;-60
2022/08/20 07:52:39;;;;;;;11.27;6.25;;;;;;;38.09;24.46;100391.53;5062235;28;20402;-59
2022/08/20 07:55:08;;;;;;;12.33;6.30;;;;;;;37.61;25.32;100388.94;5052724;28;20399;-59
2022/08/20 07:57:35;;;;;;;15.07;6.60;;;;;;;37.32;25.52;100389.47;5063962;28;20765;-58
2022/08/20 08:00:00;;;;;;;7.55;6.05;;;;;;;37.20;25.65;100387.59;5070352;28;20424;-59
2022/08/20 08:02:26;;;;;;;11.03;6.17;;;;;;;36.80;26.20;100383.88;5068427;28;20403;-59
2022/08/20 08:04:53;;;;;;;12.07;5.88;;;;;;;36.36;26.63;100381.13;5072844;28;20440;-59
2022/08/20 08:07:19;;;;;;;12.98;6.30;;;;;;;36.08;26.96;100373.63;5071573;28;20501;-59
2022/08/20 08:09:46;;;;;;;14.27;6.30;;;;;;;36.01;27.49;100373.44;5071194;28;20398;-59
2022/08/20 08:12:13;;;;;;;10.43;5.95;;;;;;;35.73;27.84;100385.25;5072394;28;20477;-59
2022/08/20 08:14:42;;;;;;;9.88;5.38;;;;;;;35.55;27.50;100387.44;5072087;28;20393;-58
2022/08/20 08:17:08;;;;;;;11.65;5.47;;;;;;;35.38;27.75;100390.44;5072217;28;20771;-61
2022/08/20 08:19:43;;;;;;;7.82;5.50;;;;;;;35.32;27.66;100394.59;5069587;28;20391;-61
2022/08/20 08:22:11;;;;;;;12.10;5.32;;;;;;;35.39;27.77;100395.63;5071983;28;20379;-59
2022/08/20 08:24:38;;;;;;;12.15;5.40;;;;;;;35.30;27.27;100402.41;5072587;28;20378;-59
2022/08/20 08:27:04;;;;;;;14.55;5.32;;;;;;;35.26;27.52;100398.72;5072510;28;20387;-59
2022/08/20 08:29:48;;;;;;;9.50;5.40;;;;;;;35.25;27.72;100394.38;5072492;28;20385;-58
2022/08/20 08:32:14;;;;;;;10.20;5.20;;;;;;;35.31;27.74;100399.31;5072361;28;20386;-57
2022/08/20 08:34:39;;;;;;;14.03;5.40;;;;;;;35.32;27.59;100398.16;5072033;28;20386;-59
2022/08/20 08:37:05;;;;;;;8.53;5.23;;;;;;;35.46;27.55;100397.00;5070120;28;20386;-60
2022/08/20 08:39:31;;;;;;;11.93;5.80;;;;;;;35.48;27.42;100398.25;5070124;28;20383;-59
2022/08/20 08:42:02;;;;;;;9.35;5.65;;;;;;;35.50;27.64;100389.66;5070708;28;20855;-57
2022/08/20 08:44:37;;;;;;;9.90;5.35;;;;;;;35.63;27.38;100391.22;5071678;28;20439;-61
2022/08/20 08:47:28;;;;;;;14.75;5.85;;;;;;;35.62;26.96;100384.13;5072170;28;20386;-59
2022/08/20 08:49:56;;;;;;;11.18;5.80;;;;;;;35.50;27.30;100379.41;5071696;28;20395;-58
2022/08/20 08:52:27;;;;;;;14.63;5.77;;;;;;;35.50;27.09;100387.69;5072288;28;20452;-58
2022/08/20 08:54:56;;;;;;;10.18;5.45;;;;;;;35.70;27.22;100382.41;5072016;28;20481;-60
2022/08/20 08:57:23;;;;;;;12.95;6.38;;;;;;;35.87;27.03;100389.56;5071896;28;20443;-59
2022/08/20 08:59:55;;;;;;;9.35;5.47;;;;;;;35.96;27.10;100384.72;5071944;28;20389;-57
2022/08/20 09:02:24;;;;;;;11.40;5.38;;;;;;;36.01;27.03;100381.72;5071760;28;21026;-59
2022/08/20 09:04:54;;;;;;;11.50;5.67;;;;;;;36.05;26.79;100388.16;5071815;28;20386;-59
2022/08/20 09:07:23;;;;;;;11.93;5.80;;;;;;;35.98;26.51;100399.78;5071705;28;20379;-58
2022/08/20 09:09:48;;;;;;;12.15;5.53;;;;;;;36.14;26.41;100390.72;5071745;28;20394;-59
2022/08/20 09:12:18;;;;;;;10.98;5.80;;;;;;;36.28;26.19;100385.63;5071320;28;20379;-59
2022/08/20 09:14:47;;;;;;;10.20;5.93;;;;;;;36.38;26.73;100389.06;5071636;28;20386;-59
2022/08/20 09:17:13;;;;;;;16.67;6.15;;;;;;;36.42;26.28;100387.19;5071478;28;20746;-59
2022/08/20 09:19:39;;;;;;;11.13;5.88;;;;;;;36.44;26.18;100393.94;5071250;28;20486;-59
2022/08/20 09:22:09;;;;;;;9.50;6.07;;;;;;;36.56;26.12;100393.09;5071035;28;20378;-59
2022/08/20 09:24:36;;;;;;;12.50;6.85;;;;;;;36.71;26.19;100388.75;5071328;28;20445;-59
2022/08/20 09:27:02;;;;;;;14.32;6.05;;;;;;;36.83;25.87;100387.88;5071233;28;20735;-58
2022/08/20 09:29:28;;;;;;;14.70;6.37;;;;;;;36.94;26.03;100383.41;5071074;28;20906;-58
2022/08/20 09:32:07;;;;;;;12.40;6.22;;;;;;;37.02;25.64;100381.63;5071200;28;20419;-59
2022/08/20 09:34:44;;;;;;;14.68;5.90;;;;;;;37.09;25.61;100384.56;5071298;28;20398;-56
2022/08/20 09:37:12;;;;;;;13.43;6.10;;;;;;;37.16;25.77;100395.03;5071442;28;20414;-59
2022/08/20 09:39:38;;;;;;;12.03;6.47;;;;;;;37.26;26.14;100392.50;5070626;28;20516;-59
2022/08/20 09:42:27;;;;;;;12.32;6.00;;;;;;;37.30;25.00;100401.69;5070758;28;20458;-61
2022/08/20 09:44:53;;;;;;;8.68;5.88;;;;;;;37.36;25.39;100399.44;5070952;28;20408;-60
2022/08/20 09:47:19;;;;;;;18.63;7.10;;;;;;;37.46;25.46;100400.84;5071060;28;20449;-59
2022/08/20 09:49:45;;;;;;;10.75;6.20;;;;;;;37.49;25.64;100398.16;5070943;28;20516;-60
2022/08/20 09:52:28;;;;;;;12.10;6.00;;;;;;;37.47;26.14;100405.19;5070816;28;20449;-60
2022/08/20 09:54:57;;;;;;;8.98;5.95;;;;;;;37.49;26.33;100400.09;5070807;28;20395;-59
2022/08/20 09:57:24;;;;;;;9.27;5.85;;;;;;;37.57;25.82;100395.56;5071055;28;20452;-59
2022/08/20 09:59:59;;;;;;;10.98;5.95;;;;;;;37.65;26.00;100394.56;5070954;28;20386;-59
2022/08/20 10:02:25;;;;;;;13.25;6.30;;;;;;;37.74;25.82;100406.22;5070393;28;20371;-59
2022/08/20 10:04:51;;;;;;;13.18;6.30;;;;;;;37.74;25.84;100410.97;5070289;28;20755;-59
2022/08/20 10:07:16;;;;;;;13.93;6.40;;;;;;;37.68;25.58;100400.19;5070601;28;20386;-59
2022/08/20 10:09:42;;;;;;;12.45;6.10;;;;;;;37.60;25.67;100398.41;5070381;28;20390;-58
2022/08/20 10:12:08;;;;;;;13.60;6.10;;;;;;;37.62;25.71;100400.81;5070451;28;20413;-59
2022/08/20 10:14:33;;;;;;;12.68;6.10;;;;;;;37.68;25.78;100400.19;5070470;28;20371;-59
2022/08/20 10:17:00;;;;;;;15.40;6.32;;;;;;;37.76;25.63;100395.63;5070460;28;20414;-59
2022/08/20 10:19:27;;;;;;;11.02;6.47;;;;;;;37.87;25.54;100398.59;5070200;28;20884;-59
2022/08/20 10:21:53;;;;;;;11.57;5.78;;;;;;;37.94;25.37;100392.41;5069927;28;20746;-59
2022/08/20 10:24:19;;;;;;;12.15;5.95;;;;;;;38.00;25.04;100397.28;5069944;28;20371;-59
2022/08/20 10:26:46;;;;;;;8.40;5.50;;;;;;;37.98;24.75;100396.84;5069239;28;20754;-61
2022/08/20 10:29:12;;;;;;;13.90;5.63;;;;;;;38.01;24.89;100401.66;5068949;28;20493;-59
2022/08/20 10:31:38;;;;;;;8.27;5.60;;;;;;;38.00;25.25;100397.28;5068635;28;20407;-60
2022/08/20 10:34:05;;;;;;;10.33;5.67;;;;;;;37.99;25.08;100397.66;5067710;28;20390;-58
2022/08/20 10:36:30;;;;;;;11.13;5.77;;;;;;;37.99;25.04;100395.66;5068908;28;20403;-60
2022/08/20 10:38:56;;;;;;;10.50;5.90;;;;;;;38.03;24.76;100399.34;5069677;28;20379;-58
2022/08/20 10:41:22;;;;;;;11.85;6.03;;;;;;;38.02;24.99;100391.38;5069920;28;20462;-59
2022/08/20 10:43:47;;;;;;;9.82;5.72;;;;;;;38.03;24.77;100395.75;5069973;28;20430;-58
2022/08/20 10:46:13;;;;;;;8.30;5.53;;;;;;;38.00;24.73;100386.22;5068004;28;20453;-60
2022/08/20 10:48:39;;;;;;;9.75;5.50;;;;;;;37.97;24.22;100394.44;5067621;28;20376;-60
2022/08/20 10:51:05;;;;;;;9.33;5.50;;;;;;;37.84;24.25;100397.34;5067933;28;20491;-59
2022/08/20 10:53:30;;;;;;;9.50;5.50;;;;;;;37.75;24.81;100405.06;5068372;28;20466;-59
2022/08/20 10:55:57;;;;;;;7.70;5.13;;;;;;;37.59;25.10;100409.81;5068885;28;20892;-58
2022/08/20 10:58:23;;;;;;;8.75;5.35;;;;;;;37.48;24.66;100415.91;5068780;28;20383;-59
2022/08/20 11:00:49;;;;;;;9.02;5.28;;;;;;;37.32;25.19;100411.59;5067674;28;20419;-60
2022/08/20 11:03:14;;;;;;;10.50;5.32;;;;;;;37.19;25.18;100413.66;5069112;28;20475;-59
2022/08/20 11:05:40;;;;;;;8.93;5.40;;;;;;;37.12;24.83;100411.50;5069814;28;20390;-59
2022/08/20 11:08:05;;;;;;;10.63;5.72;;;;;;;36.99;24.82;100412.72;5069480;28;20394;-58
2022/08/20 11:10:33;;;;;;;8.57;5.57;;;;;;;36.91;24.91;100409.00;5069358;28;20515;-58
2022/08/20 11:13:00;;;;;;;6.78;5.07;;;;;;;36.82;24.73;100417.44;5068631;28;20443;-58
2022/08/20 11:15:26;;;;;;;9.13;5.37;;;;;;;36.69;24.84;100425.00;5069515;28;20383;-59
2022/08/20 11:17:52;;;;;;;7.78;5.20;;;;;;;36.63;25.62;100420.91;5069620;28;20379;-59
2022/08/20 11:20:19;;;;;;;11.83;5.80;;;;;;;36.54;25.62;100421.06;5069616;28;20375;-59
2022/08/20 11:22:45;;;;;;;10.70;5.22;;;;;;;36.47;25.72;100417.31;5069450;28;20385;-58
2022/08/20 11:25:11;;;;;;;10.63;6.00;;;;;;;36.37;25.88;100429.66;5069356;28;20387;-59
2022/08/20 11:27:40;;;;;;;10.47;6.00;;;;;;;36.23;26.03;100427.31;5069347;28;20479;-58
2022/08/20 11:30:09;;;;;;;9.10;5.60;;;;;;;36.18;26.04;100436.59;5068639;28;20772;-58
2022/08/20 11:32:35;;;;;;;9.30;6.00;;;;;;;36.09;26.08;100424.13;5070929;28;20880;-57
2022/08/20 11:35:00;;;;;;;7.63;5.55;;;;;;;36.01;26.81;100420.34;5073565;28;20394;-58
2022/08/20 11:37:26;;;;;;;10.40;6.40;;;;;;;35.88;27.04;100413.25;5073092;28;20375;-60